Terminal Aerodrome Forecast
Issued by NWS Hastings, NE

Home | Current Version | Previous Version | Text Only | Print | Product List | Glossary On
Versions: 1 2 3 4 5 6 7 8 9 10 11 12
000
FTUS45 KGID 262320
TAFEAR
TAF
KEAR 262320Z 2700/2724 16010KT P6SM FEW250
     FM270600 17007KT P6SM VCTS SCT100CB BKN250
     FM271200 18008KT P6SM SCT250
     FM271800 18008KT P6SM VCTS SCT100CB BKN250
      AMD LTD TO CLD VIS AND WIND=

USA.gov is the U.S. government's official web portal to all federal, state and local government web resources and services.